| time (UTC) | temp F | wind direction | speed MPH | gust MPH | rain 1hr in | rain 24hr in | rain mn in | humidity % | barometer mb |
| 20260831072758 | 77 | 165 | 0.0 | 0.0 | 0.00 | 0.01 | 0.00 | 100 | 1014.5 |
| 20260831072252 | 77 | 165 | 0.0 | 0.0 | 0.00 | 0.01 | 0.00 | 100 | 1014.5 |
| 20260831071746 | 77 | 165 | 0.0 | 0.0 | 0.00 | 0.01 | 0.00 | 100 | 1014.5 |
| 20260831071240 | 77 | 165 | 0.0 | 0.0 | 0.00 | 0.01 | 0.00 | 100 | 1014.5 |
| 20260831070734 | 77 | 165 | 0.0 | 0.0 | 0.00 | 0.01 | 0.00 | 100 | 1014.6 |
| 20260831070450 | 77 | 165 | 0.0 | 0.0 | 0.00 | 0.01 | 0.00 | 100 | 1014.9 |
| 20260831065721 | 77 | 165 | 0.0 | 0.0 | 0.00 | 0.01 | 0.00 | 100 | 1015.0 |
| 20260831065447 | 77 | 165 | 0.0 | 0.0 | 0.00 | 0.01 | 0.00 | 100 | 1014.9 |
| 20260831064710 | 77 | 165 | 0.0 | 0.0 | 0.00 | 0.01 | 0.00 | 100 | 1015.0 |
| 20260831064204 | 77 | 165 | 0.0 | 0.0 | 0.00 | 0.01 | 0.00 | 100 | 1014.9 |
| 20260831063657 | 77 | 165 | 0.0 | 0.0 | 0.00 | 0.01 | 0.00 | 100 | 1015.0 |
| 20260831063151 | 77 | 165 | 0.0 | 0.0 | 0.00 | 0.01 | 0.00 | 100 | 1015.0 |
| 20260831062646 | 77 | 165 | 0.0 | 0.0 | 0.00 | 0.01 | 0.00 | 100 | 1015.1 |
| 20260831062144 | 77 | 165 | 0.0 | 0.0 | 0.00 | 0.01 | 0.00 | 100 | 1015.2 |
| 20260831061644 | 77 | 165 | 0.0 | 0.0 | 0.00 | 0.01 | 0.00 | 100 | 1015.2 |
| 20260831061144 | 77 | 165 | 0.0 | 0.0 | 0.00 | 0.01 | 0.00 | 100 | 1015.3 |
| 20260831060643 | 77 | 165 | 0.0 | 0.0 | 0.00 | 0.01 | 0.00 | 100 | 1015.4 |
| 20260831060143 | 77 | 165 | 0.0 | 0.0 | 0.00 | 0.01 | 0.00 | 100 | 1015.2 |
| 20260831055644 | 77 | 163 | 0.0 | 0.0 | 0.00 | 0.01 | 0.00 | 100 | 1015.1 |
| 20260831055225 | 77 | 151 | 0.0 | 3.0 | 0.00 | 0.01 | 0.00 | 100 | 1015.1 |
| 20260831055142 | 77 | 154 | 0.0 | 0.0 | 0.00 | 0.01 | 0.00 | 100 | 1015.2 |
| 20260831054914 | 77 | 170 | 0.0 | 3.0 | 0.00 | 0.02 | 0.00 | 100 | 1015.1 |
| 20260831053641 | 77 | 177 | 0.0 | 0.0 | 0.00 | 0.02 | 0.00 | 100 | 1015.2 |
| 20260831053142 | 77 | 172 | 0.0 | 0.0 | 0.00 | 0.02 | 0.00 | 100 | 1015.2 |
| 20260831052639 | 77 | 172 | 0.0 | 0.0 | 0.00 | 0.02 | 0.00 | 100 | 1015.2 |
| 20260831052623 | 77 | 172 | 0.0 | 0.0 | 0.00 | 0.02 | 0.00 | 100 | 1015.2 |
| 20260831051638 | 77 | 172 | 0.0 | 0.0 | 0.00 | 0.02 | 0.00 | 100 | 1015.4 |
| 20260831051138 | 77 | 175 | 0.0 | 0.0 | 0.00 | 0.02 | 0.00 | 100 | 1015.5 |
| 20260831050902 | 77 | 175 | 0.0 | 0.0 | 0.00 | 0.02 | 0.00 | 100 | 1015.6 |
| 20260831050135 | 77 | 175 | 0.0 | 0.0 | 0.00 | 0.02 | 0.00 | 100 | 1015.6 |
| 20260831045635 | 77 | 175 | 0.0 | 0.0 | 0.00 | 0.02 | 0.02 | 100 | 1015.7 |
| 20260831045622 | 77 | 175 | 0.0 | 0.0 | 0.00 | 0.02 | 0.02 | 100 | 1015.6 |
| 20260831044623 | 77 | 175 | 0.0 | 0.0 | 0.00 | 0.02 | 0.02 | 100 | 1015.6 |
| 20260831044117 | 77 | 175 | 0.0 | 0.0 | 0.00 | 0.02 | 0.02 | 100 | 1015.5 |
| 20260831043611 | 77 | 175 | 0.0 | 0.0 | 0.00 | 0.02 | 0.02 | 100 | 1015.5 |
| 20260831043105 | 77 | 175 | 0.0 | 0.0 | 0.00 | 0.02 | 0.02 | 100 | 1015.5 |
| 20260831042827 | 77 | 175 | 0.0 | 0.0 | 0.00 | 0.02 | 0.02 | 100 | 1015.6 |
| 20260831042312 | 77 | 175 | 0.0 | 0.0 | 0.00 | 0.02 | 0.02 | 100 | 1015.6 |
| 20260831041547 | 77 | 175 | 0.0 | 0.0 | 0.00 | 0.02 | 0.02 | 100 | 1015.7 |
| 20260831041041 | 77 | 175 | 0.0 | 0.0 | 0.00 | 0.02 | 0.02 | 100 | 1015.7 |
| 20260831040536 | 77 | 175 | 0.0 | 0.0 | 0.00 | 0.02 | 0.02 | 100 | 1015.8 |
| 20260831040255 | 77 | 175 | 0.0 | 0.0 | 0.00 | 0.02 | 0.02 | 100 | 1015.7 |
| 20260831035748 | 77 | 175 | 0.0 | 0.0 | 0.00 | 0.02 | 0.02 | 100 | 1015.5 |
| 20260831035017 | 77 | 175 | 0.0 | 0.0 | 0.00 | 0.02 | 0.02 | 100 | 1015.6 |
| 20260831034511 | 77 | 175 | 0.0 | 0.0 | 0.00 | 0.03 | 0.02 | 100 | 1015.5 |
| 20260831034005 | 77 | 167 | 0.0 | 0.0 | 0.00 | 0.03 | 0.02 | 100 | 1015.7 |
| 20260831033459 | 77 | 167 | 0.0 | 0.0 | 0.00 | 0.03 | 0.02 | 100 | 1015.9 |
| 20260831032953 | 77 | 167 | 0.0 | 0.0 | 0.00 | 0.03 | 0.02 | 100 | 1015.7 |
| 20260831032447 | 77 | 167 | 0.0 | 0.0 | 0.00 | 0.03 | 0.02 | 100 | 1015.8 |
| 20260831031942 | 77 | 167 | 0.0 | 0.0 | 0.00 | 0.03 | 0.02 | 100 | 1015.8 |
| 20260831031435 | 77 | 167 | 0.0 | 0.0 | 0.00 | 0.03 | 0.02 | 100 | 1015.8 |
| 20260831030929 | 77 | 167 | 0.0 | 0.0 | 0.00 | 0.03 | 0.02 | 100 | 1015.7 |
| 20260831030423 | 77 | 167 | 0.0 | 0.0 | 0.00 | 0.03 | 0.02 | 100 | 1015.8 |
| 20260831025917 | 77 | 167 | 0.0 | 0.0 | 0.00 | 0.03 | 0.02 | 100 | 1015.7 |
| 20260831025411 | 77 | 167 | 0.0 | 0.0 | 0.00 | 0.04 | 0.02 | 100 | 1015.7 |
| 20260831025350 | 77 | 167 | 0.0 | 0.0 | 0.00 | 0.04 | 0.02 | 100 | 1015.6 |
| 20260831024357 | 77 | 167 | 0.0 | 0.0 | 0.00 | 0.04 | 0.02 | 100 | 1015.6 |
| 20260831023849 | 77 | 130 | 0.0 | 0.0 | 0.00 | 0.04 | 0.02 | 100 | 1015.7 |
| 20260831023822 | 77 | 107 | 0.0 | 0.0 | 0.00 | 0.04 | 0.02 | 100 | 1015.7 |
| 20260831022837 | 77 | 107 | 0.0 | 0.0 | 0.00 | 0.05 | 0.02 | 100 | 1015.7 |
| 20260831022331 | 77 | 107 | 0.0 | 3.0 | 0.00 | 0.05 | 0.02 | 100 | 1015.6 |
| 20260831022050 | 78 | 107 | 0.0 | 3.0 | 0.00 | 0.05 | 0.02 | 100 | 1015.7 |
| 20260831021319 | 78 | 107 | 0.0 | 1.0 | 0.00 | 0.06 | 0.02 | 100 | 1015.5 |
| 20260831021043 | 78 | 107 | 0.0 | 1.0 | 0.00 | 0.06 | 0.02 | 100 | 1015.4 |
| 20260831020307 | 78 | 97 | 0.0 | 1.0 | 0.00 | 0.06 | 0.02 | 100 | 1015.4 |
| 20260831020022 | 78 | 96 | 0.0 | 1.0 | 0.00 | 0.06 | 0.02 | 100 | 1015.2 |
| 20260831015255 | 79 | 97 | 0.0 | 1.0 | 0.00 | 0.07 | 0.02 | 100 | 1015.0 |
| 20260831015240 | 78 | 112 | 0.0 | 1.0 | 0.00 | 0.07 | 0.02 | 99 | 1015.0 |
| 20260831014243 | 79 | 146 | 0.0 | 0.0 | 0.00 | 0.07 | 0.02 | 98 | 1014.9 |
| 20260831014005 | 80 | 98 | 0.0 | 0.0 | 0.00 | 0.08 | 0.02 | 98 | 1014.9 |
| 20260831013433 | 81 | 216 | 0.0 | 3.0 | 0.00 | 0.09 | 0.02 | 91 | 1014.4 |
| 20260831013427 | 81 | 164 | 0.0 | 3.0 | 0.00 | 0.09 | 0.02 | 91 | 1014.6 |
| 20260831013356 | 80 | 93 | 0.0 | 0.0 | 0.00 | 0.08 | 0.02 | 96 | 1015.0 |
| 20260831013239 | 80 | 181 | 0.0 | 1.0 | 0.00 | 0.08 | 0.02 | 92 | 1014.9 |
| 20260831013124 | 80 | 169 | 0.0 | 1.0 | 0.00 | 0.09 | 0.02 | 92 | 1014.8 |
| 20260831013010 | 81 | 123 | 0.0 | 1.0 | 0.00 | 0.09 | 0.02 | 92 | 1014.8 |
| 20260831011256 | 81 | 164 | 0.0 | 3.0 | 0.00 | 0.09 | 0.02 | 91 | 1014.6 |
| 20260831010155 | 81 | 138 | 0.0 | 4.0 | 0.00 | 0.09 | 0.02 | 90 | 1014.5 |
| 20260831005648 | 82 | 135 | 1.0 | 4.0 | 0.00 | 0.09 | 0.02 | 89 | 1014.4 |
| 20260831005143 | 82 | 188 | 0.0 | 4.0 | 0.00 | 0.09 | 0.02 | 88 | 1014.4 |
| 20260831004904 | 83 | 166 | 0.0 | 3.0 | 0.00 | 0.09 | 0.02 | 87 | 1014.4 |
| 20260831004131 | 83 | 145 | 0.0 | 3.0 | 0.00 | 0.09 | 0.02 | 86 | 1014.4 |
| 20260831003625 | 84 | 149 | 0.0 | 1.0 | 0.00 | 0.09 | 0.02 | 85 | 1014.3 |
| 20260831003120 | 84 | 151 | 0.0 | 4.0 | 0.00 | 0.09 | 0.02 | 85 | 1014.3 |
| 20260831002613 | 84 | 177 | 0.0 | 4.0 | 0.00 | 0.09 | 0.02 | 85 | 1014.3 |
| 20260831002107 | 84 | 194 | 1.0 | 8.0 | 0.00 | 0.09 | 0.02 | 85 | 1014.1 |
| 20260831001830 | 85 | 286 | 3.0 | 8.0 | 0.00 | 0.09 | 0.02 | 85 | 1014.0 |
| 20260831001107 | 85 | 312 | 3.0 | 6.0 | 0.00 | 0.09 | 0.02 | 85 | 1014.0 |
| 20260831000610 | 85 | 321 | 3.0 | 5.0 | 0.00 | 0.09 | 0.02 | 85 | 1014.1 |
| 20260831000107 | 85 | 311 | 1.0 | 5.0 | 0.00 | 0.09 | 0.02 | 85 | 1014.2 |
| 20260830235607 | 85 | 225 | 1.0 | 5.0 | 0.00 | 0.09 | 0.02 | 84 | 1014.2 |
| 20260830235105 | 85 | 280 | 1.0 | 5.0 | 0.00 | 0.09 | 0.02 | 84 | 1014.2 |
| 20260830234603 | 85 | 167 | 1.0 | 6.0 | 0.00 | 0.09 | 0.02 | 84 | 1014.2 |
| 20260830234103 | 85 | 191 | 1.0 | 6.0 | 0.00 | 0.09 | 0.02 | 84 | 1014.0 |
| 20260830233602 | 85 | 118 | 1.0 | 5.0 | 0.00 | 0.09 | 0.02 | 84 | 1014.1 |
| 20260830233104 | 86 | 188 | 1.0 | 5.0 | 0.00 | 0.09 | 0.02 | 84 | 1014.0 |
| 20260830232600 | 85 | 164 | 1.0 | 5.0 | 0.00 | 0.09 | 0.02 | 84 | 1014.1 |
| 20260830232101 | 85 | 194 | 1.0 | 4.0 | 0.00 | 0.09 | 0.02 | 84 | 1014.2 |
| 20260830231601 | 86 | 158 | 1.0 | 6.0 | 0.00 | 0.09 | 0.02 | 84 | 1014.0 |
| 20260830231101 | 86 | 170 | 1.0 | 6.0 | 0.00 | 0.09 | 0.02 | 84 | 1014.2 |
| 20260830230602 | 86 | 168 | 1.0 | 5.0 | 0.00 | 0.09 | 0.02 | 84 | 1014.1 |
| 20260830230104 | 86 | 129 | 1.0 | 5.0 | 0.00 | 0.09 | 0.02 | 84 | 1014.2 |
| 20260830225600 | 86 | 179 | 1.0 | 6.0 | 0.00 | 0.09 | 0.02 | 84 | 1014.2 |
| 20260830225100 | 86 | 293 | 1.0 | 6.0 | 0.00 | 0.09 | 0.02 | 84 | 1014.2 |
| 20260830224558 | 86 | 182 | 0.0 | 4.0 | 0.00 | 0.09 | 0.02 | 84 | 1014.2 |
| 20260830224059 | 86 | 239 | 0.0 | 4.0 | 0.00 | 0.09 | 0.02 | 84 | 1014.2 |
| 20260830223557 | 85 | 152 | 0.0 | 4.0 | 0.00 | 0.09 | 0.02 | 84 | 1014.3 |
| 20260830223328 | 85 | 151 | 1.0 | 4.0 | 0.00 | 0.09 | 0.02 | 85 | 1014.3 |
| 20260830222600 | 85 | 232 | 1.0 | 4.0 | 0.00 | 0.09 | 0.02 | 84 | 1014.4 |
| 20260830222318 | 86 | 172 | 1.0 | 4.0 | 0.00 | 0.09 | 0.02 | 83 | 1014.4 |
| 20260830221559 | 86 | 175 | 1.0 | 10.0 | 0.00 | 0.09 | 0.02 | 83 | 1014.3 |
| 20260830221055 | 86 | 303 | 1.0 | 10.0 | 0.00 | 0.09 | 0.02 | 84 | 1014.5 |
| 20260830220555 | 86 | 16 | 1.0 | 5.0 | 0.00 | 0.09 | 0.02 | 84 | 1014.3 |
| 20260830220053 | 85 | 255 | 1.0 | 5.0 | 0.00 | 0.09 | 0.02 | 84 | 1014.1 |
| 20260830215553 | 85 | 221 | 3.0 | 8.0 | 0.00 | 0.09 | 0.02 | 84 | 1014.2 |
| 20260830215055 | 85 | 187 | 3.0 | 8.0 | 0.00 | 0.09 | 0.02 | 85 | 1014.2 |
| 20260830214553 | 85 | 217 | 3.0 | 5.0 | 0.00 | 0.09 | 0.02 | 84 | 1014.2 |
| 20260830214317 | 84 | 249 | 3.0 | 5.0 | 0.00 | 0.09 | 0.02 | 84 | 1014.2 |
| 20260830213555 | 84 | 152 | 3.0 | 8.0 | 0.00 | 0.09 | 0.02 | 87 | 1014.4 |
| 20260830213322 | 84 | 280 | 1.0 | 8.0 | 0.00 | 0.09 | 0.02 | 86 | 1014.3 |
| 20260830212548 | 83 | 135 | 1.0 | 4.0 | 0.00 | 0.09 | 0.02 | 87 | 1014.4 |
| 20260830212042 | 83 | 178 | 1.0 | 4.0 | 0.00 | 0.09 | 0.02 | 88 | 1014.6 |
| 20260830211536 | 83 | 187 | 1.0 | 4.0 | 0.00 | 0.09 | 0.02 | 88 | 1014.8 |
| 20260830211029 | 82 | 141 | 1.0 | 4.0 | 0.00 | 0.09 | 0.02 | 90 | 1014.9 |
| 20260830210525 | 82 | 156 | 3.0 | 6.0 | 0.00 | 0.09 | 0.02 | 91 | 1014.8 |
| 20260830210025 | 82 | 198 | 3.0 | 6.0 | 0.00 | 0.09 | 0.02 | 90 | 1014.8 |
| 20260830205525 | 82 | 138 | 4.0 | 9.0 | 0.01 | 0.09 | 0.02 | 88 | 1014.8 |
| 20260830205022 | 82 | 310 | 4.0 | 11.0 | 0.01 | 0.09 | 0.02 | 87 | 1014.8 |
| 20260830204522 | 83 | 310 | 4.0 | 11.0 | 0.01 | 0.09 | 0.02 | 85 | 1014.7 |
| 20260830204021 | 84 | 303 | 4.0 | 9.0 | 0.01 | 0.09 | 0.02 | 83 | 1014.7 |
| 20260830203521 | 85 | 319 | 4.0 | 10.0 | 0.01 | 0.09 | 0.02 | 83 | 1014.7 |
| 20260830203023 | 87 | 254 | 4.0 | 10.0 | 0.01 | 0.09 | 0.02 | 81 | 1014.9 |
| 20260830202519 | 88 | 216 | 5.0 | 13.0 | 0.01 | 0.09 | 0.02 | 77 | 1014.8 |
| 20260830202020 | 91 | 274 | 5.0 | 14.0 | 0.01 | 0.09 | 0.02 | 72 | 1014.8 |
| 20260830201739 | 93 | 297 | 4.0 | 14.0 | 0.01 | 0.09 | 0.02 | 69 | 1014.6 |
| 20260830201020 | 92 | 254 | 4.0 | 10.0 | 0.01 | 0.09 | 0.02 | 67 | 1014.5 |
| 20260830200518 | 93 | 313 | 3.0 | 8.0 | 0.01 | 0.09 | 0.02 | 67 | 1014.7 |
| 20260830200018 | 92 | 240 | 4.0 | 8.0 | 0.01 | 0.09 | 0.02 | 69 | 1014.8 |
| 20260830195734 | 92 | 148 | 3.0 | 8.0 | 0.00 | 0.08 | 0.01 | 71 | 1014.7 |
| 20260830195013 | 92 | 322 | 3.0 | 8.0 | 0.00 | 0.08 | 0.01 | 71 | 1014.9 |
| 20260830194513 | 91 | 180 | 1.0 | 8.0 | 0.00 | 0.08 | 0.01 | 71 | 1015.0 |
| 20260830194228 | 91 | 175 | 1.0 | 8.0 | 0.00 | 0.08 | 0.01 | 72 | 1015.1 |
| 20260830193507 | 92 | 147 | 1.0 | 6.0 | 0.00 | 0.08 | 0.01 | 71 | 1015.3 |
| 20260830193008 | 92 | 175 | 3.0 | 6.0 | 0.00 | 0.09 | 0.01 | 70 | 1015.4 |
| 20260830192722 | 93 | 254 | 1.0 | 6.0 | 0.00 | 0.09 | 0.01 | 68 | 1015.4 |
| 20260830192214 | 93 | 168 | 1.0 | 8.0 | 0.00 | 0.10 | 0.01 | 68 | 1015.5 |
| 20260830191938 | 92 | 100 | 3.0 | 8.0 | 0.00 | 0.10 | 0.01 | 70 | 1015.6 |
| 20260830190944 | 91 | 355 | 4.0 | 6.0 | 0.00 | 0.11 | 0.01 | 72 | 1015.7 |
| 20260830190658 | 90 | 306 | 5.0 | 10.0 | 0.00 | 0.12 | 0.01 | 73 | 1015.6 |
| 20260830185932 | 90 | 308 | 5.0 | 10.0 | 0.00 | 0.13 | 0.01 | 73 | 1015.7 |
| 20260830185426 | 90 | 315 | 6.0 | 14.0 | 0.00 | 0.14 | 0.01 | 72 | 1015.6 |
| 20260830184919 | 92 | 306 | 5.0 | 14.0 | 0.00 | 0.14 | 0.01 | 71 | 1015.6 |
| 20260830184414 | 93 | 312 | 1.0 | 9.0 | 0.00 | 0.15 | 0.01 | 68 | 1015.6 |
| 20260830183908 | 93 | 176 | 1.0 | 5.0 | 0.00 | 0.16 | 0.01 | 69 | 1015.6 |
| 20260830183402 | 93 | 278 | 3.0 | 8.0 | 0.00 | 0.17 | 0.01 | 66 | 1015.8 |
| 20260830182856 | 93 | 310 | 3.0 | 8.0 | 0.00 | 0.17 | 0.01 | 66 | 1015.7 |
| 20260830182350 | 92 | 145 | 4.0 | 9.0 | 0.00 | 0.18 | 0.01 | 69 | 1015.7 |
| 20260830182107 | 92 | 232 | 4.0 | 9.0 | 0.00 | 0.19 | 0.01 | 69 | 1015.8 |
| 20260830181338 | 92 | 319 | 4.0 | 9.0 | 0.00 | 0.21 | 0.01 | 71 | 1015.7 |
| 20260830180832 | 92 | 279 | 1.0 | 9.0 | 0.00 | 0.22 | 0.01 | 68 | 1015.9 |
| 20260830180326 | 92 | 228 | 1.0 | 5.0 | 0.00 | 0.23 | 0.01 | 67 | 1015.9 |
| 20260830175820 | 92 | 153 | 1.0 | 5.0 | 0.00 | 0.24 | 0.01 | 68 | 1016.0 |
| 20260830175314 | 93 | 200 | 1.0 | 4.0 | 0.00 | 0.25 | 0.01 | 68 | 1016.2 |
| 20260830175042 | 92 | 194 | 0.0 | 4.0 | 0.00 | 0.26 | 0.01 | 68 | 1016.3 |
| 20260830174303 | 92 | 156 | 0.0 | 3.0 | 0.00 | 0.27 | 0.01 | 68 | 1016.3 |
| 20260830173756 | 92 | 150 | 0.0 | 4.0 | 0.00 | 0.28 | 0.01 | 68 | 1016.4 |
| 20260830173250 | 92 | 154 | 1.0 | 5.0 | 0.00 | 0.29 | 0.01 | 68 | 1016.5 |
| 20260830172744 | 92 | 313 | 1.0 | 5.0 | 0.00 | 0.30 | 0.01 | 68 | 1016.6 |
| 20260830172238 | 92 | 146 | 1.0 | 5.0 | 0.00 | 0.30 | 0.01 | 68 | 1016.7 |
| 20260830171732 | 91 | 79 | 1.0 | 5.0 | 0.00 | 0.31 | 0.01 | 68 | 1016.9 |
| 20260830171226 | 91 | 296 | 1.0 | 6.0 | 0.00 | 0.32 | 0.01 | 69 | 1017.0 |
| 20260830170721 | 91 | 106 | 1.0 | 6.0 | 0.00 | 0.33 | 0.01 | 70 | 1017.0 |
| 20260830170214 | 92 | 99 | 1.0 | 8.0 | 0.00 | 0.34 | 0.01 | 69 | 1017.0 |
| 20260830165708 | 92 | 196 | 1.0 | 8.0 | 0.00 | 0.35 | 0.01 | 68 | 1017.1 |
| 20260830165202 | 93 | 249 | 1.0 | 5.0 | 0.00 | 0.36 | 0.01 | 69 | 1017.0 |
| 20260830164656 | 92 | 131 | 1.0 | 5.0 | 0.00 | 0.36 | 0.01 | 67 | 1017.0 |
| 20260830164150 | 92 | 259 | 1.0 | 5.0 | 0.00 | 0.36 | 0.01 | 66 | 1017.1 |
| 20260830163644 | 92 | 225 | 1.0 | 4.0 | 0.00 | 0.36 | 0.01 | 68 | 1017.1 |
| 20260830163139 | 92 | 170 | 1.0 | 8.0 | 0.00 | 0.36 | 0.01 | 68 | 1017.1 |
| 20260830162632 | 92 | 179 | 3.0 | 8.0 | 0.00 | 0.36 | 0.01 | 70 | 1017.1 |
| 20260830162126 | 93 | 298 | 3.0 | 5.0 | 0.00 | 0.36 | 0.01 | 68 | 1017.0 |
| 20260830161838 | 93 | 128 | 1.0 | 5.0 | 0.00 | 0.36 | 0.01 | 70 | 1017.1 |
| 20260830161114 | 93 | 121 | 1.0 | 5.0 | 0.00 | 0.36 | 0.01 | 68 | 1016.9 |
| 20260830160608 | 92 | 142 | 1.0 | 5.0 | 0.00 | 0.36 | 0.01 | 71 | 1017.0 |
| 20260830155556 | 91 | 146 | 3.0 | 6.0 | 0.00 | 0.36 | 0.01 | 76 | 1017.0 |
| 20260830155050 | 90 | 156 | 3.0 | 9.0 | 0.00 | 0.36 | 0.01 | 74 | 1017.0 |
| 20260830154544 | 89 | 173 | 4.0 | 9.0 | 0.00 | 0.36 | 0.01 | 75 | 1017.1 |
| 20260830154306 | 89 | 277 | 3.0 | 8.0 | 0.00 | 0.36 | 0.01 | 76 | 1017.1 |
| 20260830153532 | 91 | 322 | 1.0 | 5.0 | 0.00 | 0.36 | 0.01 | 75 | 1017.0 |
| 20260830153027 | 91 | 284 | 0.0 | 6.0 | 0.00 | 0.36 | 0.01 | 73 | 1016.9 |
| 20260830152527 | 91 | 180 | 1.0 | 6.0 | 0.00 | 0.36 | 0.01 | 76 | 1016.9 |
| 20260830152023 | 91 | 137 | 1.0 | 4.0 | 0.00 | 0.36 | 0.01 | 76 | 1016.9 |
| 20260830151523 | 90 | 145 | 1.0 | 4.0 | 0.00 | 0.36 | 0.01 | 75 | 1016.7 |
| 20260830151028 | 90 | 120 | 1.0 | 4.0 | 0.00 | 0.36 | 0.01 | 76 | 1016.6 |
| 20260830150738 | 89 | 129 | 1.0 | 6.0 | 0.00 | 0.36 | 0.01 | 79 | 1016.6 |
| 20260830150021 | 89 | 161 | 1.0 | 6.0 | 0.00 | 0.36 | 0.01 | 78 | 1016.6 |
| 20260830145519 | 89 | 211 | 1.0 | 5.0 | 0.00 | 0.36 | 0.01 | 80 | 1016.6 |
| 20260830145238 | 89 | 175 | 1.0 | 6.0 | 0.00 | 0.36 | 0.01 | 79 | 1016.7 |
| 20260830144519 | 89 | 299 | 1.0 | 6.0 | 0.00 | 0.36 | 0.01 | 79 | 1016.7 |
| 20260830144019 | 89 | 135 | 1.0 | 4.0 | 0.00 | 0.36 | 0.01 | 81 | 1016.9 |
| 20260830143516 | 89 | 182 | 1.0 | 4.0 | 0.00 | 0.36 | 0.01 | 80 | 1017.0 |
| 20260830143017 | 89 | 123 | 0.0 | 3.0 | 0.00 | 0.36 | 0.01 | 81 | 1017.0 |
| 20260830142517 | 89 | 164 | 0.0 | 3.0 | 0.00 | 0.36 | 0.01 | 81 | 1017.0 |
| 20260830142020 | 89 | 225 | 1.0 | 5.0 | 0.00 | 0.36 | 0.01 | 82 | 1017.0 |
| 20260830141518 | 88 | 148 | 0.0 | 5.0 | 0.00 | 0.36 | 0.01 | 83 | 1016.8 |
| 20260830141017 | 88 | 151 | 0.0 | 3.0 | 0.00 | 0.36 | 0.01 | 83 | 1016.9 |
| 20260830140518 | 88 | 136 | 0.0 | 3.0 | 0.00 | 0.36 | 0.01 | 84 | 1016.9 |
| 20260830140240 | 87 | 158 | 0.0 | 3.0 | 0.00 | 0.36 | 0.01 | 84 | 1016.9 |
| 20260830135506 | 87 | 139 | 0.0 | 4.0 | 0.00 | 0.36 | 0.01 | 86 | 1016.9 |
| 20260830135000 | 86 | 156 | 1.0 | 4.0 | 0.00 | 0.36 | 0.01 | 87 | 1017.0 |
| 20260830134454 | 85 | 165 | 1.0 | 3.0 | 0.00 | 0.36 | 0.01 | 87 | 1016.9 |
| 20260830133948 | 85 | 156 | 1.0 | 4.0 | 0.00 | 0.36 | 0.01 | 87 | 1016.9 |
| 20260830133442 | 84 | 199 | 1.0 | 4.0 | 0.00 | 0.36 | 0.01 | 88 | 1016.9 |
| 20260830132935 | 84 | 165 | 1.0 | 4.0 | 0.00 | 0.36 | 0.01 | 90 | 1016.8 |
| 20260830132923 | 83 | 279 | 1.0 | 4.0 | 0.00 | 0.36 | 0.01 | 90 | 1016.9 |
| 20260830131931 | 83 | 257 | 0.0 | 4.0 | 0.00 | 0.36 | 0.01 | 90 | 1016.8 |
| 20260830131431 | 82 | 148 | 0.0 | 5.0 | 0.00 | 0.36 | 0.01 | 92 | 1016.7 |
| 20260830130931 | 81 | 236 | 0.0 | 5.0 | 0.00 | 0.36 | 0.01 | 94 | 1016.9 |
| 20260830130431 | 80 | 171 | 0.0 | 1.0 | 0.00 | 0.36 | 0.01 | 96 | 1016.7 |
| 20260830125932 | 80 | 146 | 0.0 | 1.0 | 0.00 | 0.36 | 0.01 | 97 | 1016.6 |
| 20260830125432 | 79 | 144 | 0.0 | 1.0 | 0.00 | 0.36 | 0.01 | 97 | 1016.6 |
| 20260830124931 | 79 | 180 | 0.0 | 3.0 | 0.00 | 0.36 | 0.01 | 97 | 1016.4 |
| 20260830124432 | 78 | 144 | 0.0 | 3.0 | 0.00 | 0.36 | 0.01 | 98 | 1016.5 |
| 20260830123931 | 78 | 173 | 0.0 | 1.0 | 0.00 | 0.36 | 0.01 | 99 | 1016.5 |
| 20260830123432 | 78 | 172 | 0.0 | 1.0 | 0.00 | 0.36 | 0.01 | 99 | 1016.4 |
| 20260830122930 | 77 | 172 | 0.0 | 1.0 | 0.00 | 0.36 | 0.01 | 99 | 1016.3 |
| 20260830122432 | 77 | 147 | 0.0 | 0.0 | 0.00 | 0.36 | 0.01 | 99 | 1016.2 |
| 20260830122156 | 77 | 148 | 0.0 | 0.0 | 0.00 | 0.36 | 0.01 | 99 | 1016.0 |
| 20260830121700 | 77 | 148 | 0.0 | 0.0 | 0.00 | 0.36 | 0.01 | 99 | 1016.1 |
| 20260830120931 | 77 | 148 | 0.0 | 0.0 | 0.00 | 0.36 | 0.01 | 99 | 1016.1 |
| 20260830120432 | 76 | 147 | 0.0 | 0.0 | 0.00 | 0.36 | 0.01 | 99 | 1016.0 |
| 20260830120202 | 76 | 147 | 0.0 | 0.0 | 0.00 | 0.36 | 0.01 | 99 | 1015.8 |
| 20260830115425 | 76 | 147 | 0.0 | 0.0 | 0.00 | 0.36 | 0.01 | 99 | 1015.8 |
| 20260830114919 | 76 | 147 | 0.0 | 0.0 | 0.00 | 0.36 | 0.01 | 99 | 1015.8 |
| 20260830114635 | 76 | 147 | 0.0 | 0.0 | 0.00 | 0.36 | 0.01 | 98 | 1015.9 |
| 20260830114133 | 76 | 147 | 0.0 | 0.0 | 0.00 | 0.36 | 0.01 | 98 | 1016.0 |
| 20260830113401 | 76 | 148 | 0.0 | 0.0 | 0.00 | 0.36 | 0.01 | 98 | 1016.1 |
| 20260830112855 | 76 | 148 | 0.0 | 0.0 | 0.00 | 0.36 | 0.01 | 98 | 1015.8 |
| 20260830112349 | 76 | 147 | 0.0 | 0.0 | 0.00 | 0.36 | 0.01 | 98 | 1015.7 |
| 20260830111843 | 76 | 147 | 0.0 | 0.0 | 0.00 | 0.36 | 0.01 | 98 | 1015.6 |
| 20260830111337 | 76 | 148 | 0.0 | 0.0 | 0.00 | 0.36 | 0.01 | 98 | 1015.6 |
| 20260830110831 | 76 | 148 | 0.0 | 0.0 | 0.00 | 0.36 | 0.01 | 98 | 1015.6 |
| 20260830110325 | 76 | 148 | 0.0 | 0.0 | 0.00 | 0.36 | 0.01 | 98 | 1015.5 |
| 20260830105819 | 76 | 148 | 0.0 | 0.0 | 0.00 | 0.36 | 0.01 | 98 | 1015.4 |
| 20260830105312 | 76 | 147 | 0.0 | 0.0 | 0.00 | 0.36 | 0.01 | 98 | 1015.4 |
| 20260830104805 | 76 | 148 | 0.0 | 0.0 | 0.00 | 0.36 | 0.01 | 98 | 1015.4 |
| 20260830104259 | 76 | 147 | 0.0 | 0.0 | 0.00 | 0.36 | 0.01 | 98 | 1015.3 |
| 20260830104019 | 76 | 147 | 0.0 | 0.0 | 0.00 | 0.36 | 0.01 | 98 | 1015.3 |
| 20260830103509 | 76 | 147 | 0.0 | 0.0 | 0.00 | 0.36 | 0.01 | 98 | 1015.3 |
| 20260830102741 | 76 | 147 | 0.0 | 0.0 | 0.00 | 0.36 | 0.01 | 98 | 1015.2 |
| 20260830102235 | 77 | 148 | 0.0 | 0.0 | 0.00 | 0.36 | 0.01 | 98 | 1015.2 |
| 20260830101728 | 77 | 147 | 0.0 | 0.0 | 0.00 | 0.36 | 0.01 | 98 | 1015.3 |
| 20260830101224 | 77 | 147 | 0.0 | 0.0 | 0.00 | 0.36 | 0.01 | 98 | 1015.3 |
| 20260830100717 | 77 | 147 | 0.0 | 0.0 | 0.00 | 0.36 | 0.01 | 97 | 1015.4 |
| 20260830100211 | 77 | 147 | 0.0 | 0.0 | 0.00 | 0.36 | 0.01 | 97 | 1015.3 |
| 20260830095705 | 77 | 147 | 0.0 | 0.0 | 0.00 | 0.36 | 0.01 | 97 | 1015.2 |
| 20260830095420 | 77 | 147 | 0.0 | 0.0 | 0.00 | 0.36 | 0.01 | 97 | 1015.2 |
| 20260830094653 | 77 | 147 | 0.0 | 0.0 | 0.00 | 0.36 | 0.01 | 97 | 1015.2 |
| 20260830094146 | 77 | 147 | 0.0 | 0.0 | 0.00 | 0.36 | 0.01 | 97 | 1015.1 |
| 20260830093641 | 77 | 147 | 0.0 | 0.0 | 0.00 | 0.36 | 0.01 | 98 | 1015.0 |
| 20260830093359 | 77 | 148 | 0.0 | 0.0 | 0.00 | 0.36 | 0.01 | 98 | 1015.0 |
| 20260830092630 | 77 | 147 | 0.0 | 0.0 | 0.00 | 0.36 | 0.01 | 98 | 1015.0 |
| 20260830092122 | 77 | 148 | 0.0 | 0.0 | 0.00 | 0.36 | 0.01 | 98 | 1014.9 |
| 20260830091617 | 77 | 147 | 0.0 | 0.0 | 0.00 | 0.36 | 0.01 | 98 | 1015.0 |
| 20260830091111 | 77 | 148 | 0.0 | 0.0 | 0.00 | 0.36 | 0.01 | 98 | 1015.0 |
| 20260830090605 | 77 | 147 | 0.0 | 0.0 | 0.00 | 0.36 | 0.01 | 98 | 1015.1 |
| 20260830090318 | 77 | 148 | 0.0 | 0.0 | 0.00 | 0.36 | 0.01 | 97 | 1015.1 |
| 20260830085553 | 77 | 148 | 0.0 | 0.0 | 0.00 | 0.36 | 0.01 | 97 | 1015.1 |
| 20260830085538 | 77 | 147 | 0.0 | 0.0 | 0.00 | 0.36 | 0.01 | 97 | 1015.1 |
| 20260830084541 | 77 | 147 | 0.0 | 0.0 | 0.00 | 0.36 | 0.01 | 97 | 1015.0 |
| 20260830084035 | 77 | 148 | 0.0 | 0.0 | 0.00 | 0.36 | 0.01 | 97 | 1015.0 |
| 20260830083529 | 77 | 148 | 0.0 | 0.0 | 0.00 | 0.36 | 0.01 | 97 | 1014.9 |
| 20260830083023 | 77 | 147 | 0.0 | 0.0 | 0.00 | 0.36 | 0.01 | 97 | 1015.0 |
| 20260830082740 | 77 | 147 | 0.0 | 0.0 | 0.00 | 0.36 | 0.01 | 97 | 1014.9 |
| 20260830082011 | 77 | 147 | 0.0 | 0.0 | 0.00 | 0.36 | 0.01 | 97 | 1014.9 |
| 20260830081505 | 77 | 147 | 0.0 | 0.0 | 0.00 | 0.36 | 0.01 | 97 | 1014.8 |
| 20260830081226 | 77 | 147 | 0.0 | 0.0 | 0.00 | 0.36 | 0.01 | 97 | 1015.0 |
| 20260830080453 | 77 | 147 | 0.0 | 0.0 | 0.00 | 0.36 | 0.01 | 97 | 1015.0 |
| 20260830075947 | 77 | 147 | 0.0 | 0.0 | 0.00 | 0.36 | 0.01 | 97 | 1015.0 |
| 20260830075441 | 77 | 148 | 0.0 | 0.0 | 0.00 | 0.36 | 0.01 | 96 | 1015.0 |
| 20260830074935 | 77 | 147 | 0.0 | 0.0 | 0.00 | 0.36 | 0.01 | 96 | 1015.2 |
| 20260830074655 | 77 | 148 | 0.0 | 0.0 | 0.00 | 0.36 | 0.01 | 96 | 1015.0 |
| 20260830074141 | 77 | 148 | 0.0 | 0.0 | 0.00 | 0.36 | 0.01 | 96 | 1015.1 |
| 20260830073417 | 77 | 147 | 0.0 | 0.0 | 0.00 | 0.36 | 0.01 | 96 | 1015.1 |